sensor_id;sensor_type;location;lat;lon;timestamp;pressure;altitude;pressure_sealevel;temperature;humidity
13080;BME280;6606;49.154;9.280;2023-04-28T00:01:30;99466.22;;;11.04;100.00
13080;BME280;6606;49.154;9.280;2023-04-28T00:04:12;99460.16;;;11.02;100.00
13080;BME280;6606;49.154;9.280;2023-04-28T00:06:53;99461.59;;;11.07;100.00
13080;BME280;6606;49.154;9.280;2023-04-28T00:09:35;99459.56;;;11.12;100.00
13080;BME280;6606;49.154;9.280;2023-04-28T00:12:18;99457.41;;;11.19;100.00
13080;BME280;6606;49.154;9.280;2023-04-28T00:15:02;99444.25;;;11.17;100.00
13080;BME280;6606;49.154;9.280;2023-04-28T00:17:44;99452.69;;;11.24;100.00
13080;BME280;6606;49.154;9.280;2023-04-28T00:20:26;99447.97;;;11.29;100.00
13080;BME280;6606;49.154;9.280;2023-04-28T00:23:08;99452.19;;;11.33;100.00
13080;BME280;6606;49.154;9.280;2023-04-28T00:25:50;99451.81;;;11.39;100.00
13080;BME280;6606;49.154;9.280;2023-04-28T00:28:32;99450.97;;;11.39;100.00
13080;BME280;6606;49.154;9.280;2023-04-28T00:31:15;99449.44;;;11.35;100.00
13080;BME280;6606;49.154;9.280;2023-04-28T00:33:57;99440.19;;;11.26;100.00
13080;BME280;6606;49.154;9.280;2023-04-28T00:36:39;99436.09;;;11.05;100.00
13080;BME280;6606;49.154;9.280;2023-04-28T00:39:21;99437.50;;;11.12;100.00
13080;BME280;6606;49.154;9.280;2023-04-28T00:42:05;99445.88;;;11.20;100.00
13080;BME280;6606;49.154;9.280;2023-04-28T00:44:47;99436.94;;;11.21;100.00
13080;BME280;6606;49.154;9.280;2023-04-28T00:47:31;99434.22;;;11.22;100.00
13080;BME280;6606;49.154;9.280;2023-04-28T00:50:15;99437.19;;;11.32;100.00
13080;BME280;6606;49.154;9.280;2023-04-28T00:52:59;99440.63;;;11.34;100.00
13080;BME280;6606;49.154;9.280;2023-04-28T00:55:41;99432.28;;;11.40;100.00
13080;BME280;6606;49.154;9.280;2023-04-28T00:58:23;99423.19;;;11.30;100.00
13080;BME280;6606;49.154;9.280;2023-04-28T01:01:07;99429.22;;;11.32;100.00
13080;BME280;6606;49.154;9.280;2023-04-28T01:03:52;99442.25;;;11.21;100.00
13080;BME280;6606;49.154;9.280;2023-04-28T01:06:37;99449.63;;;11.16;100.00
13080;BME280;6606;49.154;9.280;2023-04-28T01:09:22;99441.34;;;11.22;100.00
13080;BME280;6606;49.154;9.280;2023-04-28T01:12:06;99435.94;;;11.08;100.00
13080;BME280;6606;49.154;9.280;2023-04-28T01:14:58;99429.00;;;11.05;100.00
13080;BME280;6606;49.154;9.280;2023-04-28T01:17:41;99416.69;;;11.04;100.00
13080;BME280;6606;49.154;9.280;2023-04-28T01:20:24;99414.22;;;11.01;100.00
13080;BME280;6606;49.154;9.280;2023-04-28T01:23:10;99407.97;;;11.02;100.00
13080;BME280;6606;49.154;9.280;2023-04-28T01:25:54;99407.28;;;10.98;100.00
13080;BME280;6606;49.154;9.280;2023-04-28T01:28:39;99404.28;;;11.05;100.00
13080;BME280;6606;49.154;9.280;2023-04-28T01:31:21;99400.97;;;11.01;100.00
13080;BME280;6606;49.154;9.280;2023-04-28T01:34:03;99392.31;;;10.82;100.00
13080;BME280;6606;49.154;9.280;2023-04-28T01:36:45;99397.72;;;10.64;100.00
13080;BME280;6606;49.154;9.280;2023-04-28T01:39:27;99395.31;;;10.60;100.00
13080;BME280;6606;49.154;9.280;2023-04-28T01:42:11;99398.63;;;10.79;100.00
13080;BME280;6606;49.154;9.280;2023-04-28T01:44:53;99392.84;;;10.88;100.00
13080;BME280;6606;49.154;9.280;2023-04-28T01:47:35;99403.19;;;10.93;100.00
13080;BME280;6606;49.154;9.280;2023-04-28T01:50:20;99396.25;;;10.90;100.00
13080;BME280;6606;49.154;9.280;2023-04-28T01:53:02;99379.34;;;10.77;100.00
13080;BME280;6606;49.154;9.280;2023-04-28T01:55:43;99365.97;;;10.63;100.00
13080;BME280;6606;49.154;9.280;2023-04-28T01:58:27;99373.16;;;10.61;100.00
13080;BME280;6606;49.154;9.280;2023-04-28T02:01:09;99363.06;;;10.67;100.00
13080;BME280;6606;49.154;9.280;2023-04-28T02:03:51;99360.69;;;10.63;100.00
13080;BME280;6606;49.154;9.280;2023-04-28T02:06:34;99372.84;;;10.67;100.00
13080;BME280;6606;49.154;9.280;2023-04-28T02:09:16;99365.91;;;10.80;100.00
13080;BME280;6606;49.154;9.280;2023-04-28T02:11:58;99368.56;;;10.80;100.00
13080;BME280;6606;49.154;9.280;2023-04-28T02:14:43;99363.66;;;10.88;100.00
13080;BME280;6606;49.154;9.280;2023-04-28T02:17:25;99366.31;;;10.88;100.00
13080;BME280;6606;49.154;9.280;2023-04-28T02:20:08;99362.34;;;10.95;100.00
13080;BME280;6606;49.154;9.280;2023-04-28T02:22:50;99360.47;;;10.97;100.00
13080;BME280;6606;49.154;9.280;2023-04-28T02:25:32;99359.44;;;11.00;100.00
13080;BME280;6606;49.154;9.280;2023-04-28T02:28:14;99372.47;;;11.05;100.00
13080;BME280;6606;49.154;9.280;2023-04-28T02:31:07;99361.66;;;11.08;100.00
13080;BME280;6606;49.154;9.280;2023-04-28T02:33:49;99357.91;;;11.12;100.00
13080;BME280;6606;49.154;9.280;2023-04-28T02:36:33;99353.34;;;11.14;100.00
13080;BME280;6606;49.154;9.280;2023-04-28T02:39:16;99357.38;;;11.21;100.00
13080;BME280;6606;49.154;9.280;2023-04-28T02:41:58;99364.41;;;11.22;100.00
13080;BME280;6606;49.154;9.280;2023-04-28T02:44:40;99361.66;;;11.23;100.00
13080;BME280;6606;49.154;9.280;2023-04-28T02:47:23;99354.91;;;11.18;100.00
13080;BME280;6606;49.154;9.280;2023-04-28T02:50:06;99351.47;;;11.16;100.00
13080;BME280;6606;49.154;9.280;2023-04-28T02:52:48;99354.72;;;11.21;100.00
13080;BME280;6606;49.154;9.280;2023-04-28T02:55:30;99346.75;;;11.21;100.00
13080;BME280;6606;49.154;9.280;2023-04-28T02:58:12;99340.69;;;11.19;100.00
13080;BME280;6606;49.154;9.280;2023-04-28T03:00:54;99342.00;;;11.12;100.00
13080;BME280;6606;49.154;9.280;2023-04-28T03:03:37;99354.50;;;11.10;100.00
13080;BME280;6606;49.154;9.280;2023-04-28T03:06:21;99355.88;;;11.01;100.00
13080;BME280;6606;49.154;9.280;2023-04-28T03:09:03;99354.38;;;11.11;100.00
13080;BME280;6606;49.154;9.280;2023-04-28T03:11:46;99348.00;;;10.99;100.00
13080;BME280;6606;49.154;9.280;2023-04-28T03:14:28;99348.50;;;11.06;100.00
13080;BME280;6606;49.154;9.280;2023-04-28T03:17:10;99349.44;;;11.05;100.00
13080;BME280;6606;49.154;9.280;2023-04-28T03:19:55;99346.53;;;11.10;100.00
13080;BME280;6606;49.154;9.280;2023-04-28T03:22:37;99352.06;;;11.21;100.00
13080;BME280;6606;49.154;9.280;2023-04-28T03:25:19;99345.91;;;11.20;100.00
13080;BME280;6606;49.154;9.280;2023-04-28T03:28:05;99338.22;;;11.16;100.00
13080;BME280;6606;49.154;9.280;2023-04-28T03:30:47;99327.09;;;11.25;100.00
13080;BME280;6606;49.154;9.280;2023-04-28T03:33:29;99339.94;;;11.17;100.00
13080;BME280;6606;49.154;9.280;2023-04-28T03:36:14;99323.94;;;11.03;100.00
13080;BME280;6606;49.154;9.280;2023-04-28T03:38:56;99319.84;;;10.97;100.00
13080;BME280;6606;49.154;9.280;2023-04-28T03:41:38;99305.91;;;11.09;100.00
13080;BME280;6606;49.154;9.280;2023-04-28T03:44:38;99304.81;;;11.28;100.00
13080;BME280;6606;49.154;9.280;2023-04-28T03:47:21;99299.59;;;11.26;100.00
13080;BME280;6606;49.154;9.280;2023-04-28T03:50:03;99290.69;;;11.27;100.00
13080;BME280;6606;49.154;9.280;2023-04-28T03:52:47;99288.97;;;11.26;100.00
13080;BME280;6606;49.154;9.280;2023-04-28T03:55:29;99293.38;;;11.11;100.00
13080;BME280;6606;49.154;9.280;2023-04-28T03:58:11;99286.50;;;11.09;100.00
13080;BME280;6606;49.154;9.280;2023-04-28T04:00:55;99281.94;;;11.11;100.00
13080;BME280;6606;49.154;9.280;2023-04-28T04:03:36;99286.50;;;11.23;100.00
13080;BME280;6606;49.154;9.280;2023-04-28T04:06:20;99282.91;;;11.24;100.00
13080;BME280;6606;49.154;9.280;2023-04-28T04:09:03;99276.94;;;11.20;100.00
13080;BME280;6606;49.154;9.280;2023-04-28T04:11:46;99279.78;;;11.17;100.00
13080;BME280;6606;49.154;9.280;2023-04-28T04:14:29;99286.34;;;11.26;100.00
13080;BME280;6606;49.154;9.280;2023-04-28T04:17:11;99289.19;;;11.37;100.00
13080;BME280;6606;49.154;9.280;2023-04-28T04:19:53;99285.47;;;11.26;100.00
13080;BME280;6606;49.154;9.280;2023-04-28T04:22:35;99291.75;;;11.39;100.00
13080;BME280;6606;49.154;9.280;2023-04-28T04:25:18;99285.03;;;11.48;100.00
13080;BME280;6606;49.154;9.280;2023-04-28T04:28:02;99283.34;;;11.47;100.00
13080;BME280;6606;49.154;9.280;2023-04-28T04:30:44;99287.69;;;11.48;100.00
13080;BME280;6606;49.154;9.280;2023-04-28T04:33:28;99290.47;;;11.46;100.00
13080;BME280;6606;49.154;9.280;2023-04-28T04:36:10;99292.16;;;11.47;100.00
13080;BME280;6606;49.154;9.280;2023-04-28T04:38:52;99277.06;;;11.48;100.00
13080;BME280;6606;49.154;9.280;2023-04-28T04:41:37;99282.69;;;11.57;100.00
13080;BME280;6606;49.154;9.280;2023-04-28T04:44:38;99280.50;;;11.64;100.00
13080;BME280;6606;49.154;9.280;2023-04-28T04:47:24;99287.34;;;11.68;100.00
13080;BME280;6606;49.154;9.280;2023-04-28T04:50:07;99286.97;;;11.60;100.00
13080;BME280;6606;49.154;9.280;2023-04-28T04:52:49;99290.94;;;11.53;100.00
13080;BME280;6606;49.154;9.280;2023-04-28T04:55:32;99284.31;;;11.60;100.00
13080;BME280;6606;49.154;9.280;2023-04-28T04:58:15;99275.13;;;11.65;100.00
13080;BME280;6606;49.154;9.280;2023-04-28T05:01:17;99277.38;;;11.57;100.00
13080;BME280;6606;49.154;9.280;2023-04-28T05:03:59;99283.16;;;11.50;100.00
13080;BME280;6606;49.154;9.280;2023-04-28T05:06:41;99278.03;;;11.47;100.00
13080;BME280;6606;49.154;9.280;2023-04-28T05:09:24;99287.50;;;11.51;100.00
13080;BME280;6606;49.154;9.280;2023-04-28T05:12:06;99271.00;;;11.45;100.00
13080;BME280;6606;49.154;9.280;2023-04-28T05:14:49;99259.47;;;11.61;100.00
13080;BME280;6606;49.154;9.280;2023-04-28T05:17:34;99268.78;;;11.54;100.00
13080;BME280;6606;49.154;9.280;2023-04-28T05:20:16;99280.69;;;11.61;100.00
13080;BME280;6606;49.154;9.280;2023-04-28T05:23:01;99273.59;;;11.76;100.00
13080;BME280;6606;49.154;9.280;2023-04-28T05:25:43;99267.38;;;11.91;100.00
13080;BME280;6606;49.154;9.280;2023-04-28T05:28:26;99258.66;;;11.89;100.00
13080;BME280;6606;49.154;9.280;2023-04-28T05:31:10;99260.63;;;12.00;100.00
13080;BME280;6606;49.154;9.280;2023-04-28T05:33:52;99264.22;;;12.13;100.00
13080;BME280;6606;49.154;9.280;2023-04-28T05:36:34;99264.38;;;12.24;100.00
13080;BME280;6606;49.154;9.280;2023-04-28T05:39:16;99260.41;;;12.31;100.00
13080;BME280;6606;49.154;9.280;2023-04-28T05:41:58;99275.69;;;12.28;100.00
13080;BME280;6606;49.154;9.280;2023-04-28T05:44:41;99260.03;;;12.23;100.00
13080;BME280;6606;49.154;9.280;2023-04-28T05:47:24;99268.78;;;12.25;100.00
13080;BME280;6606;49.154;9.280;2023-04-28T05:50:07;99265.63;;;12.19;100.00
13080;BME280;6606;49.154;9.280;2023-04-28T05:52:50;99266.47;;;12.34;100.00
13080;BME280;6606;49.154;9.280;2023-04-28T05:55:32;99269.38;;;12.43;100.00
13080;BME280;6606;49.154;9.280;2023-04-28T05:58:19;99275.00;;;12.39;100.00
13080;BME280;6606;49.154;9.280;2023-04-28T06:01:00;99264.03;;;12.30;100.00
13080;BME280;6606;49.154;9.280;2023-04-28T06:03:43;99275.88;;;12.25;100.00
13080;BME280;6606;49.154;9.280;2023-04-28T06:06:25;99279.41;;;12.11;100.00
13080;BME280;6606;49.154;9.280;2023-04-28T06:09:09;99280.38;;;12.10;100.00
13080;BME280;6606;49.154;9.280;2023-04-28T06:11:51;99286.03;;;12.18;100.00
13080;BME280;6606;49.154;9.280;2023-04-28T06:14:33;99289.47;;;12.20;100.00
13080;BME280;6606;49.154;9.280;2023-04-28T06:17:17;99297.22;;;12.09;100.00
13080;BME280;6606;49.154;9.280;2023-04-28T06:20:04;99296.13;;;11.99;100.00
13080;BME280;6606;49.154;9.280;2023-04-28T06:22:47;99301.59;;;11.96;100.00
13080;BME280;6606;49.154;9.280;2023-04-28T06:25:29;99309.94;;;12.04;100.00
13080;BME280;6606;49.154;9.280;2023-04-28T06:28:11;99303.50;;;12.08;100.00
13080;BME280;6606;49.154;9.280;2023-04-28T06:30:54;99301.78;;;12.21;100.00
13080;BME280;6606;49.154;9.280;2023-04-28T06:33:36;99307.03;;;12.23;100.00
13080;BME280;6606;49.154;9.280;2023-04-28T06:36:19;99281.94;;;12.27;100.00
13080;BME280;6606;49.154;9.280;2023-04-28T06:39:01;99285.16;;;12.46;100.00
13080;BME280;6606;49.154;9.280;2023-04-28T06:41:43;99297.69;;;12.44;100.00
13080;BME280;6606;49.154;9.280;2023-04-28T06:44:26;99289.38;;;12.49;100.00
13080;BME280;6606;49.154;9.280;2023-04-28T06:47:09;99284.13;;;12.62;100.00
13080;BME280;6606;49.154;9.280;2023-04-28T06:49:52;99283.44;;;12.72;100.00
13080;BME280;6606;49.154;9.280;2023-04-28T06:52:38;99285.66;;;12.66;100.00
13080;BME280;6606;49.154;9.280;2023-04-28T06:55:20;99286.72;;;12.63;100.00
13080;BME280;6606;49.154;9.280;2023-04-28T06:58:03;99274.19;;;12.65;100.00
13080;BME280;6606;49.154;9.280;2023-04-28T07:00:47;99281.38;;;12.63;100.00
13080;BME280;6606;49.154;9.280;2023-04-28T07:03:29;99278.66;;;12.77;100.00
13080;BME280;6606;49.154;9.280;2023-04-28T07:06:12;99272.72;;;12.74;100.00
13080;BME280;6606;49.154;9.280;2023-04-28T07:08:55;99276.34;;;12.86;100.00
13080;BME280;6606;49.154;9.280;2023-04-28T07:11:37;99269.53;;;12.82;100.00
13080;BME280;6606;49.154;9.280;2023-04-28T07:14:19;99281.38;;;12.90;100.00
13080;BME280;6606;49.154;9.280;2023-04-28T07:17:01;99300.16;;;12.74;100.00
13080;BME280;6606;49.154;9.280;2023-04-28T07:19:43;99300.75;;;12.65;100.00
13080;BME280;6606;49.154;9.280;2023-04-28T07:22:24;99303.34;;;12.52;100.00
13080;BME280;6606;49.154;9.280;2023-04-28T07:25:08;99285.44;;;12.69;100.00
13080;BME280;6606;49.154;9.280;2023-04-28T07:27:50;99284.69;;;12.67;100.00
13080;BME280;6606;49.154;9.280;2023-04-28T07:30:34;99283.50;;;12.58;100.00
13080;BME280;6606;49.154;9.280;2023-04-28T07:33:16;99298.53;;;12.45;100.00
13080;BME280;6606;49.154;9.280;2023-04-28T07:35:58;99295.31;;;12.40;100.00
13080;BME280;6606;49.154;9.280;2023-04-28T07:38:40;99288.94;;;12.42;100.00
13080;BME280;6606;49.154;9.280;2023-04-28T07:41:25;99299.28;;;12.47;100.00
13080;BME280;6606;49.154;9.280;2023-04-28T07:44:07;99286.72;;;12.49;100.00
13080;BME280;6606;49.154;9.280;2023-04-28T07:46:49;99293.41;;;12.42;100.00
13080;BME280;6606;49.154;9.280;2023-04-28T07:49:32;99292.56;;;12.27;100.00
13080;BME280;6606;49.154;9.280;2023-04-28T07:52:14;99283.72;;;12.41;100.00
13080;BME280;6606;49.154;9.280;2023-04-28T07:54:55;99288.53;;;12.48;100.00
13080;BME280;6606;49.154;9.280;2023-04-28T07:57:39;99290.50;;;12.59;100.00
13080;BME280;6606;49.154;9.280;2023-04-28T08:00:21;99283.09;;;12.64;100.00
13080;BME280;6606;49.154;9.280;2023-04-28T08:03:04;99278.88;;;12.74;100.00
13080;BME280;6606;49.154;9.280;2023-04-28T08:05:45;99257.81;;;12.71;100.00
13080;BME280;6606;49.154;9.280;2023-04-28T08:08:28;99251.13;;;12.79;100.00
13080;BME280;6606;49.154;9.280;2023-04-28T08:11:10;99241.81;;;12.98;100.00
13080;BME280;6606;49.154;9.280;2023-04-28T08:13:53;99251.38;;;13.28;100.00
13080;BME280;6606;49.154;9.280;2023-04-28T08:16:40;99265.25;;;13.59;100.00
13080;BME280;6606;49.154;9.280;2023-04-28T08:19:23;99275.34;;;13.54;100.00
13080;BME280;6606;49.154;9.280;2023-04-28T08:22:05;99289.41;;;13.56;100.00
13080;BME280;6606;49.154;9.280;2023-04-28T08:24:47;99287.38;;;13.59;100.00
13080;BME280;6606;49.154;9.280;2023-04-28T08:27:29;99291.03;;;13.58;100.00
13080;BME280;6606;49.154;9.280;2023-04-28T08:30:15;99300.69;;;13.59;100.00
13080;BME280;6606;49.154;9.280;2023-04-28T08:32:56;99311.56;;;13.56;100.00
13080;BME280;6606;49.154;9.280;2023-04-28T08:35:38;99317.06;;;13.28;100.00
13080;BME280;6606;49.154;9.280;2023-04-28T08:38:20;99308.50;;;13.23;100.00
13080;BME280;6606;49.154;9.280;2023-04-28T08:41:04;99312.50;;;13.30;100.00
13080;BME280;6606;49.154;9.280;2023-04-28T08:43:47;99310.28;;;13.09;100.00
13080;BME280;6606;49.154;9.280;2023-04-28T08:46:30;99315.84;;;13.19;100.00
13080;BME280;6606;49.154;9.280;2023-04-28T08:49:15;99303.16;;;13.37;100.00
13080;BME280;6606;49.154;9.280;2023-04-28T08:51:58;99308.28;;;13.53;100.00
13080;BME280;6606;49.154;9.280;2023-04-28T08:54:41;99301.91;;;13.68;100.00
13080;BME280;6606;49.154;9.280;2023-04-28T08:57:25;99295.28;;;13.74;100.00
13080;BME280;6606;49.154;9.280;2023-04-28T09:00:10;99290.38;;;13.93;100.00
13080;BME280;6606;49.154;9.280;2023-04-28T09:02:53;99282.28;;;13.95;100.00
13080;BME280;6606;49.154;9.280;2023-04-28T09:05:35;99288.69;;;13.92;100.00
13080;BME280;6606;49.154;9.280;2023-04-28T09:08:17;99283.75;;;14.12;100.00
13080;BME280;6606;49.154;9.280;2023-04-28T09:11:06;99271.25;;;14.25;100.00
13080;BME280;6606;49.154;9.280;2023-04-28T09:13:48;99270.75;;;14.57;100.00
13080;BME280;6606;49.154;9.280;2023-04-28T09:16:38;99279.84;;;14.78;100.00
13080;BME280;6606;49.154;9.280;2023-04-28T09:19:22;99275.44;;;15.25;100.00
13080;BME280;6606;49.154;9.280;2023-04-28T09:22:05;99297.06;;;15.45;100.00
13080;BME280;6606;49.154;9.280;2023-04-28T09:24:47;99296.31;;;15.31;100.00
13080;BME280;6606;49.154;9.280;2023-04-28T09:27:28;99301.97;;;15.51;100.00
13080;BME280;6606;49.154;9.280;2023-04-28T09:30:11;99293.22;;;15.49;100.00
13080;BME280;6606;49.154;9.280;2023-04-28T09:33:03;99282.38;;;15.86;100.00
13080;BME280;6606;49.154;9.280;2023-04-28T09:35:46;99295.25;;;16.25;100.00
13080;BME280;6606;49.154;9.280;2023-04-28T09:38:28;99290.28;;;16.43;100.00
13080;BME280;6606;49.154;9.280;2023-04-28T09:41:10;99288.31;;;16.57;100.00
13080;BME280;6606;49.154;9.280;2023-04-28T09:43:52;99283.22;;;16.97;100.00
13080;BME280;6606;49.154;9.280;2023-04-28T09:46:33;99276.97;;;17.08;100.00
13080;BME280;6606;49.154;9.280;2023-04-28T09:49:15;99280.19;;;17.23;100.00
13080;BME280;6606;49.154;9.280;2023-04-28T09:52:12;99273.09;;;17.01;100.00
13080;BME280;6606;49.154;9.280;2023-04-28T09:54:55;99275.56;;;16.92;100.00
13080;BME280;6606;49.154;9.280;2023-04-28T09:57:38;99270.22;;;16.26;100.00
13080;BME280;6606;49.154;9.280;2023-04-28T10:00:21;99278.97;;;15.95;100.00
13080;BME280;6606;49.154;9.280;2023-04-28T10:03:03;99279.03;;;15.59;100.00
13080;BME280;6606;49.154;9.280;2023-04-28T10:05:46;99287.16;;;15.58;100.00
13080;BME280;6606;49.154;9.280;2023-04-28T10:08:30;99279.38;;;15.44;100.00
13080;BME280;6606;49.154;9.280;2023-04-28T10:11:12;99283.53;;;15.59;100.00
13080;BME280;6606;49.154;9.280;2023-04-28T10:13:55;99278.59;;;15.30;100.00
13080;BME280;6606;49.154;9.280;2023-04-28T10:16:37;99276.47;;;15.58;100.00
13080;BME280;6606;49.154;9.280;2023-04-28T10:19:19;99272.53;;;15.75;100.00
13080;BME280;6606;49.154;9.280;2023-04-28T10:22:12;99272.78;;;15.94;100.00
13080;BME280;6606;49.154;9.280;2023-04-28T10:25:11;99274.25;;;15.98;100.00
13080;BME280;6606;49.154;9.280;2023-04-28T10:28:05;99271.66;;;16.19;100.00
13080;BME280;6606;49.154;9.280;2023-04-28T10:31:08;99263.03;;;16.27;100.00
13080;BME280;6606;49.154;9.280;2023-04-28T10:33:50;99263.38;;;16.45;100.00
13080;BME280;6606;49.154;9.280;2023-04-28T10:36:48;99263.34;;;16.56;100.00
13080;BME280;6606;49.154;9.280;2023-04-28T10:39:34;99253.09;;;16.73;100.00
13080;BME280;6606;49.154;9.280;2023-04-28T10:46:04;99275.47;;;16.83;100.00
13080;BME280;6606;49.154;9.280;2023-04-28T10:48:53;99265.69;;;17.04;100.00
13080;BME280;6606;49.154;9.280;2023-04-28T10:51:37;99270.72;;;17.19;100.00
13080;BME280;6606;49.154;9.280;2023-04-28T10:54:19;99279.13;;;16.82;100.00
13080;BME280;6606;49.154;9.280;2023-04-28T10:57:20;99277.34;;;17.03;100.00
13080;BME280;6606;49.154;9.280;2023-04-28T11:00:26;99268.50;;;17.24;100.00
13080;BME280;6606;49.154;9.280;2023-04-28T11:03:37;99268.59;;;17.01;100.00
13080;BME280;6606;49.154;9.280;2023-04-28T11:06:26;99271.69;;;16.74;100.00
13080;BME280;6606;49.154;9.280;2023-04-28T11:09:45;99286.50;;;16.35;100.00
13080;BME280;6606;49.154;9.280;2023-04-28T11:12:29;99277.75;;;16.10;100.00
13080;BME280;6606;49.154;9.280;2023-04-28T11:15:11;99275.19;;;16.09;100.00
13080;BME280;6606;49.154;9.280;2023-04-28T11:17:56;99264.38;;;15.88;100.00
13080;BME280;6606;49.154;9.280;2023-04-28T11:20:42;99265.47;;;15.74;100.00
13080;BME280;6606;49.154;9.280;2023-04-28T11:23:27;99259.28;;;15.73;100.00
13080;BME280;6606;49.154;9.280;2023-04-28T11:26:09;99256.09;;;15.68;100.00
13080;BME280;6606;49.154;9.280;2023-04-28T11:28:53;99244.47;;;15.69;100.00
13080;BME280;6606;49.154;9.280;2023-04-28T11:31:35;99252.00;;;15.75;100.00
13080;BME280;6606;49.154;9.280;2023-04-28T11:34:19;99247.41;;;15.89;100.00
13080;BME280;6606;49.154;9.280;2023-04-28T11:37:02;99244.22;;;15.83;100.00
13080;BME280;6606;49.154;9.280;2023-04-28T11:39:45;99248.13;;;15.91;100.00
13080;BME280;6606;49.154;9.280;2023-04-28T11:42:27;99249.34;;;15.87;100.00
13080;BME280;6606;49.154;9.280;2023-04-28T11:45:11;99257.59;;;16.17;100.00
13080;BME280;6606;49.154;9.280;2023-04-28T11:47:53;99263.31;;;16.13;100.00
13080;BME280;6606;49.154;9.280;2023-04-28T11:50:35;99264.63;;;16.30;100.00
13080;BME280;6606;49.154;9.280;2023-04-28T11:53:18;99267.78;;;16.46;100.00
13080;BME280;6606;49.154;9.280;2023-04-28T11:56:06;99257.50;;;16.62;100.00
13080;BME280;6606;49.154;9.280;2023-04-28T11:58:59;99255.44;;;17.09;100.00
13080;BME280;6606;49.154;9.280;2023-04-28T12:01:46;99250.31;;;17.06;100.00
13080;BME280;6606;49.154;9.280;2023-04-28T12:04:29;99239.22;;;17.32;100.00
13080;BME280;6606;49.154;9.280;2023-04-28T12:07:13;99236.06;;;17.69;100.00
13080;BME280;6606;49.154;9.280;2023-04-28T12:10:13;99243.88;;;18.02;100.00
13080;BME280;6606;49.154;9.280;2023-04-28T12:12:56;99250.53;;;18.58;100.00
13080;BME280;6606;49.154;9.280;2023-04-28T12:15:40;99261.03;;;19.10;100.00
13080;BME280;6606;49.154;9.280;2023-04-28T12:18:22;99263.31;;;18.95;100.00
13080;BME280;6606;49.154;9.280;2023-04-28T12:21:19;99272.91;;;18.88;100.00
13080;BME280;6606;49.154;9.280;2023-04-28T12:24:12;99260.09;;;18.51;100.00
13080;BME280;6606;49.154;9.280;2023-04-28T12:27:12;99259.81;;;18.44;100.00
13080;BME280;6606;49.154;9.280;2023-04-28T12:29:57;99261.38;;;18.47;100.00
13080;BME280;6606;49.154;9.280;2023-04-28T12:32:40;99262.47;;;17.94;100.00
13080;BME280;6606;49.154;9.280;2023-04-28T12:35:23;99259.72;;;17.85;100.00
13080;BME280;6606;49.154;9.280;2023-04-28T12:38:05;99264.38;;;17.62;100.00
13080;BME280;6606;49.154;9.280;2023-04-28T12:40:46;99269.16;;;17.37;100.00
13080;BME280;6606;49.154;9.280;2023-04-28T12:43:30;99268.97;;;17.29;100.00
13080;BME280;6606;49.154;9.280;2023-04-28T12:46:12;99282.69;;;17.03;100.00
13080;BME280;6606;49.154;9.280;2023-04-28T12:48:55;99278.38;;;16.91;100.00
13080;BME280;6606;49.154;9.280;2023-04-28T12:51:37;99261.84;;;16.75;100.00
13080;BME280;6606;49.154;9.280;2023-04-28T12:54:19;99266.00;;;16.67;100.00
13080;BME280;6606;49.154;9.280;2023-04-28T12:57:01;99271.50;;;16.55;100.00
13080;BME280;6606;49.154;9.280;2023-04-28T12:59:44;99266.72;;;16.69;100.00
13080;BME280;6606;49.154;9.280;2023-04-28T13:02:27;99273.13;;;16.46;100.00
13080;BME280;6606;49.154;9.280;2023-04-28T13:05:09;99263.34;;;16.56;100.00
13080;BME280;6606;49.154;9.280;2023-04-28T13:07:50;99271.09;;;16.82;100.00
13080;BME280;6606;49.154;9.280;2023-04-28T13:10:32;99266.59;;;16.71;100.00
13080;BME280;6606;49.154;9.280;2023-04-28T13:13:14;99266.50;;;16.61;100.00
13080;BME280;6606;49.154;9.280;2023-04-28T13:15:57;99263.81;;;16.73;100.00
13080;BME280;6606;49.154;9.280;2023-04-28T13:18:39;99255.44;;;17.09;100.00
13080;BME280;6606;49.154;9.280;2023-04-28T13:21:21;99253.16;;;17.47;100.00
13080;BME280;6606;49.154;9.280;2023-04-28T13:24:04;99253.16;;;17.77;100.00
13080;BME280;6606;49.154;9.280;2023-04-28T13:26:46;99264.78;;;18.09;100.00
13080;BME280;6606;49.154;9.280;2023-04-28T13:29:28;99252.81;;;18.13;100.00
13080;BME280;6606;49.154;9.280;2023-04-28T13:32:11;99252.59;;;18.35;100.00
13080;BME280;6606;49.154;9.280;2023-04-28T13:34:52;99253.81;;;18.91;100.00
13080;BME280;6606;49.154;9.280;2023-04-28T13:37:34;99251.44;;;19.17;100.00
13080;BME280;6606;49.154;9.280;2023-04-28T13:40:21;99239.25;;;19.13;100.00
13080;BME280;6606;49.154;9.280;2023-04-28T13:43:03;99232.47;;;19.28;100.00
13080;BME280;6606;49.154;9.280;2023-04-28T13:45:46;99232.16;;;19.31;100.00
13080;BME280;6606;49.154;9.280;2023-04-28T13:48:32;99237.06;;;19.65;100.00
13080;BME280;6606;49.154;9.280;2023-04-28T13:51:14;99231.81;;;19.73;100.00
13080;BME280;6606;49.154;9.280;2023-04-28T13:53:56;99232.56;;;20.03;100.00
13080;BME280;6606;49.154;9.280;2023-04-28T13:56:37;99231.22;;;20.17;100.00
13080;BME280;6606;49.154;9.280;2023-04-28T13:59:19;99226.44;;;19.73;100.00
13080;BME280;6606;49.154;9.280;2023-04-28T14:02:01;99218.13;;;19.67;100.00
13080;BME280;6606;49.154;9.280;2023-04-28T14:04:44;99211.31;;;19.72;100.00
13080;BME280;6606;49.154;9.280;2023-04-28T14:07:28;99208.97;;;19.40;100.00
13080;BME280;6606;49.154;9.280;2023-04-28T14:10:10;99197.88;;;19.72;100.00
13080;BME280;6606;49.154;9.280;2023-04-28T14:12:51;99190.31;;;20.13;100.00
13080;BME280;6606;49.154;9.280;2023-04-28T14:15:33;99190.56;;;20.20;100.00
13080;BME280;6606;49.154;9.280;2023-04-28T14:18:15;99185.63;;;20.43;100.00
13080;BME280;6606;49.154;9.280;2023-04-28T14:20:58;99194.00;;;19.85;100.00
13080;BME280;6606;49.154;9.280;2023-04-28T14:23:41;99177.44;;;19.32;100.00
13080;BME280;6606;49.154;9.280;2023-04-28T14:26:23;99175.09;;;18.91;100.00
13080;BME280;6606;49.154;9.280;2023-04-28T14:29:05;99177.63;;;19.21;100.00
13080;BME280;6606;49.154;9.280;2023-04-28T14:31:47;99179.19;;;19.24;100.00